sensor_id;sensor_type;location;lat;lon;timestamp;P1;durP1;ratioP1;P2;durP2;ratioP2
18933;SDS011;9599;53.706;10.384;2022-07-29T00:02:14;4.27;;;2.50;;
18933;SDS011;9599;53.706;10.384;2022-07-29T00:04:42;4.70;;;2.40;;
18933;SDS011;9599;53.706;10.384;2022-07-29T00:07:10;4.43;;;2.80;;
18933;SDS011;9599;53.706;10.384;2022-07-29T00:09:40;4.67;;;2.60;;
18933;SDS011;9599;53.706;10.384;2022-07-29T00:12:17;5.37;;;2.77;;
18933;SDS011;9599;53.706;10.384;2022-07-29T00:14:52;5.27;;;2.80;;
18933;SDS011;9599;53.706;10.384;2022-07-29T00:17:21;4.53;;;2.83;;
18933;SDS011;9599;53.706;10.384;2022-07-29T00:19:49;4.83;;;2.73;;
18933;SDS011;9599;53.706;10.384;2022-07-29T00:22:17;6.40;;;2.90;;
18933;SDS011;9599;53.706;10.384;2022-07-29T00:24:48;6.23;;;3.07;;
18933;SDS011;9599;53.706;10.384;2022-07-29T00:27:16;3.93;;;2.80;;
18933;SDS011;9599;53.706;10.384;2022-07-29T00:29:44;6.30;;;3.20;;
18933;SDS011;9599;53.706;10.384;2022-07-29T00:32:12;6.27;;;3.30;;
18933;SDS011;9599;53.706;10.384;2022-07-29T00:34:40;6.90;;;3.23;;
18933;SDS011;9599;53.706;10.384;2022-07-29T00:37:26;6.57;;;3.37;;
18933;SDS011;9599;53.706;10.384;2022-07-29T00:39:55;6.00;;;3.10;;
18933;SDS011;9599;53.706;10.384;2022-07-29T00:42:23;5.47;;;3.23;;
18933;SDS011;9599;53.706;10.384;2022-07-29T00:44:51;6.57;;;3.43;;
18933;SDS011;9599;53.706;10.384;2022-07-29T00:47:19;6.67;;;3.07;;
18933;SDS011;9599;53.706;10.384;2022-07-29T00:49:47;6.97;;;2.90;;
18933;SDS011;9599;53.706;10.384;2022-07-29T00:52:15;5.53;;;3.10;;
18933;SDS011;9599;53.706;10.384;2022-07-29T00:54:43;5.53;;;3.30;;
18933;SDS011;9599;53.706;10.384;2022-07-29T00:57:12;6.10;;;3.33;;
18933;SDS011;9599;53.706;10.384;2022-07-29T00:59:41;6.57;;;3.23;;
18933;SDS011;9599;53.706;10.384;2022-07-29T01:02:09;5.20;;;3.37;;
18933;SDS011;9599;53.706;10.384;2022-07-29T01:04:37;5.70;;;3.47;;
18933;SDS011;9599;53.706;10.384;2022-07-29T01:07:05;4.83;;;3.60;;
18933;SDS011;9599;53.706;10.384;2022-07-29T01:09:34;6.67;;;3.60;;
18933;SDS011;9599;53.706;10.384;2022-07-29T01:12:14;5.33;;;3.97;;
18933;SDS011;9599;53.706;10.384;2022-07-29T01:14:44;6.83;;;3.73;;
18933;SDS011;9599;53.706;10.384;2022-07-29T01:17:14;8.13;;;3.90;;
18933;SDS011;9599;53.706;10.384;2022-07-29T01:19:49;5.90;;;3.60;;
18933;SDS011;9599;53.706;10.384;2022-07-29T01:22:26;5.37;;;3.90;;
18933;SDS011;9599;53.706;10.384;2022-07-29T01:25:05;5.77;;;3.23;;
18933;SDS011;9599;53.706;10.384;2022-07-29T01:27:51;6.90;;;3.53;;
18933;SDS011;9599;53.706;10.384;2022-07-29T01:30:38;6.87;;;3.20;;
18933;SDS011;9599;53.706;10.384;2022-07-29T01:33:09;7.20;;;3.17;;
18933;SDS011;9599;53.706;10.384;2022-07-29T01:36:01;5.87;;;3.50;;
18933;SDS011;9599;53.706;10.384;2022-07-29T01:38:37;7.20;;;3.20;;
18933;SDS011;9599;53.706;10.384;2022-07-29T01:41:08;7.37;;;3.17;;
18933;SDS011;9599;53.706;10.384;2022-07-29T01:43:38;4.97;;;3.07;;
18933;SDS011;9599;53.706;10.384;2022-07-29T01:46:11;8.37;;;3.10;;
18933;SDS011;9599;53.706;10.384;2022-07-29T01:48:45;5.93;;;3.10;;
18933;SDS011;9599;53.706;10.384;2022-07-29T01:51:16;6.60;;;3.53;;
18933;SDS011;9599;53.706;10.384;2022-07-29T01:53:48;4.70;;;3.10;;
18933;SDS011;9599;53.706;10.384;2022-07-29T01:56:21;5.93;;;2.83;;
18933;SDS011;9599;53.706;10.384;2022-07-29T01:58:51;7.40;;;3.47;;
18933;SDS011;9599;53.706;10.384;2022-07-29T02:01:22;7.27;;;3.70;;
18933;SDS011;9599;53.706;10.384;2022-07-29T02:03:52;5.87;;;3.50;;
18933;SDS011;9599;53.706;10.384;2022-07-29T02:06:21;4.93;;;3.60;;
18933;SDS011;9599;53.706;10.384;2022-07-29T02:08:50;8.00;;;3.87;;
18933;SDS011;9599;53.706;10.384;2022-07-29T02:11:19;6.63;;;3.70;;
18933;SDS011;9599;53.706;10.384;2022-07-29T02:13:47;6.17;;;3.70;;
18933;SDS011;9599;53.706;10.384;2022-07-29T02:16:18;6.23;;;3.67;;
18933;SDS011;9599;53.706;10.384;2022-07-29T02:18:51;6.60;;;3.47;;
18933;SDS011;9599;53.706;10.384;2022-07-29T02:21:23;7.53;;;3.73;;
18933;SDS011;9599;53.706;10.384;2022-07-29T02:23:54;6.77;;;3.47;;
18933;SDS011;9599;53.706;10.384;2022-07-29T02:26:26;5.90;;;3.63;;
18933;SDS011;9599;53.706;10.384;2022-07-29T02:28:57;7.23;;;4.10;;
18933;SDS011;9599;53.706;10.384;2022-07-29T02:31:30;6.03;;;3.43;;
18933;SDS011;9599;53.706;10.384;2022-07-29T02:34:01;4.93;;;3.57;;
18933;SDS011;9599;53.706;10.384;2022-07-29T02:36:32;6.23;;;3.80;;
18933;SDS011;9599;53.706;10.384;2022-07-29T02:39:01;4.73;;;3.37;;
18933;SDS011;9599;53.706;10.384;2022-07-29T02:41:30;6.67;;;3.70;;
18933;SDS011;9599;53.706;10.384;2022-07-29T02:44:05;5.10;;;3.37;;
18933;SDS011;9599;53.706;10.384;2022-07-29T02:46:41;7.90;;;3.40;;
18933;SDS011;9599;53.706;10.384;2022-07-29T02:49:16;8.67;;;4.03;;
18933;SDS011;9599;53.706;10.384;2022-07-29T02:51:58;6.03;;;3.40;;
18933;SDS011;9599;53.706;10.384;2022-07-29T02:54:31;6.93;;;3.70;;
18933;SDS011;9599;53.706;10.384;2022-07-29T02:57:05;6.83;;;3.67;;
18933;SDS011;9599;53.706;10.384;2022-07-29T02:59:38;6.93;;;3.80;;
18933;SDS011;9599;53.706;10.384;2022-07-29T03:02:12;7.07;;;3.47;;
18933;SDS011;9599;53.706;10.384;2022-07-29T03:04:41;6.60;;;3.57;;
18933;SDS011;9599;53.706;10.384;2022-07-29T03:07:11;7.40;;;4.07;;
18933;SDS011;9599;53.706;10.384;2022-07-29T03:09:41;7.87;;;3.90;;
18933;SDS011;9599;53.706;10.384;2022-07-29T03:12:11;5.83;;;3.73;;
18933;SDS011;9599;53.706;10.384;2022-07-29T03:14:41;5.97;;;3.70;;
18933;SDS011;9599;53.706;10.384;2022-07-29T03:17:11;6.70;;;3.40;;
18933;SDS011;9599;53.706;10.384;2022-07-29T03:19:40;8.03;;;3.80;;
18933;SDS011;9599;53.706;10.384;2022-07-29T03:22:09;7.07;;;3.60;;
18933;SDS011;9599;53.706;10.384;2022-07-29T03:24:38;6.57;;;3.50;;
18933;SDS011;9599;53.706;10.384;2022-07-29T03:27:06;5.10;;;3.40;;
18933;SDS011;9599;53.706;10.384;2022-07-29T03:29:34;9.13;;;3.70;;
18933;SDS011;9599;53.706;10.384;2022-07-29T03:32:04;7.10;;;3.80;;
18933;SDS011;9599;53.706;10.384;2022-07-29T03:34:35;8.03;;;4.03;;
18933;SDS011;9599;53.706;10.384;2022-07-29T03:37:05;6.60;;;3.50;;
18933;SDS011;9599;53.706;10.384;2022-07-29T03:39:35;7.23;;;4.07;;
18933;SDS011;9599;53.706;10.384;2022-07-29T03:42:08;6.47;;;3.80;;
18933;SDS011;9599;53.706;10.384;2022-07-29T03:44:39;6.87;;;3.70;;
18933;SDS011;9599;53.706;10.384;2022-07-29T03:47:09;7.23;;;3.53;;
18933;SDS011;9599;53.706;10.384;2022-07-29T03:49:39;8.23;;;3.83;;
18933;SDS011;9599;53.706;10.384;2022-07-29T03:52:08;8.83;;;4.17;;
18933;SDS011;9599;53.706;10.384;2022-07-29T03:54:36;4.50;;;3.30;;
18933;SDS011;9599;53.706;10.384;2022-07-29T03:57:04;6.83;;;4.00;;
18933;SDS011;9599;53.706;10.384;2022-07-29T03:59:34;9.00;;;3.83;;
18933;SDS011;9599;53.706;10.384;2022-07-29T04:02:04;6.23;;;3.77;;
18933;SDS011;9599;53.706;10.384;2022-07-29T04:04:36;5.77;;;3.60;;
18933;SDS011;9599;53.706;10.384;2022-07-29T04:07:05;8.60;;;3.50;;
18933;SDS011;9599;53.706;10.384;2022-07-29T04:09:33;7.10;;;3.57;;
18933;SDS011;9599;53.706;10.384;2022-07-29T04:12:01;5.50;;;3.60;;
18933;SDS011;9599;53.706;10.384;2022-07-29T04:14:30;10.90;;;3.70;;
18933;SDS011;9599;53.706;10.384;2022-07-29T04:16:59;8.10;;;3.40;;
18933;SDS011;9599;53.706;10.384;2022-07-29T04:19:28;8.73;;;3.83;;
18933;SDS011;9599;53.706;10.384;2022-07-29T04:21:56;5.27;;;3.63;;
18933;SDS011;9599;53.706;10.384;2022-07-29T04:24:26;6.03;;;3.80;;
18933;SDS011;9599;53.706;10.384;2022-07-29T04:26:54;6.93;;;3.93;;
18933;SDS011;9599;53.706;10.384;2022-07-29T04:29:22;4.63;;;3.37;;
18933;SDS011;9599;53.706;10.384;2022-07-29T04:31:50;7.37;;;3.50;;
18933;SDS011;9599;53.706;10.384;2022-07-29T04:34:21;6.00;;;3.50;;
18933;SDS011;9599;53.706;10.384;2022-07-29T04:36:53;6.33;;;3.60;;
18933;SDS011;9599;53.706;10.384;2022-07-29T04:39:21;8.40;;;3.47;;
18933;SDS011;9599;53.706;10.384;2022-07-29T04:41:50;7.17;;;3.40;;
18933;SDS011;9599;53.706;10.384;2022-07-29T04:44:21;4.93;;;3.27;;
18933;SDS011;9599;53.706;10.384;2022-07-29T04:46:54;6.63;;;3.50;;
18933;SDS011;9599;53.706;10.384;2022-07-29T04:49:23;6.17;;;3.23;;
18933;SDS011;9599;53.706;10.384;2022-07-29T04:51:52;6.80;;;3.73;;
18933;SDS011;9599;53.706;10.384;2022-07-29T04:54:20;7.77;;;3.60;;
18933;SDS011;9599;53.706;10.384;2022-07-29T04:56:48;7.33;;;3.30;;
18933;SDS011;9599;53.706;10.384;2022-07-29T04:59:17;8.10;;;3.30;;
18933;SDS011;9599;53.706;10.384;2022-07-29T05:01:45;5.90;;;3.33;;
18933;SDS011;9599;53.706;10.384;2022-07-29T05:04:13;6.40;;;3.50;;
18933;SDS011;9599;53.706;10.384;2022-07-29T05:06:42;7.73;;;3.70;;
18933;SDS011;9599;53.706;10.384;2022-07-29T05:09:10;7.30;;;3.13;;
18933;SDS011;9599;53.706;10.384;2022-07-29T05:11:38;5.73;;;3.33;;
18933;SDS011;9599;53.706;10.384;2022-07-29T05:14:06;10.40;;;4.53;;
18933;SDS011;9599;53.706;10.384;2022-07-29T05:16:36;3.70;;;3.20;;
18933;SDS011;9599;53.706;10.384;2022-07-29T05:19:05;6.27;;;3.30;;
18933;SDS011;9599;53.706;10.384;2022-07-29T05:21:39;6.77;;;3.23;;
18933;SDS011;9599;53.706;10.384;2022-07-29T05:24:07;6.20;;;3.30;;
18933;SDS011;9599;53.706;10.384;2022-07-29T05:26:35;9.37;;;5.10;;
18933;SDS011;9599;53.706;10.384;2022-07-29T05:29:03;7.80;;;5.80;;
18933;SDS011;9599;53.706;10.384;2022-07-29T05:31:31;4.67;;;3.50;;
18933;SDS011;9599;53.706;10.384;2022-07-29T05:34:00;5.77;;;3.00;;
18933;SDS011;9599;53.706;10.384;2022-07-29T05:36:28;5.40;;;3.10;;
18933;SDS011;9599;53.706;10.384;2022-07-29T05:38:56;6.03;;;3.20;;
18933;SDS011;9599;53.706;10.384;2022-07-29T05:41:24;8.10;;;2.97;;
18933;SDS011;9599;53.706;10.384;2022-07-29T05:43:52;5.87;;;2.77;;
18933;SDS011;9599;53.706;10.384;2022-07-29T05:46:20;5.00;;;3.10;;
18933;SDS011;9599;53.706;10.384;2022-07-29T05:48:48;4.60;;;2.90;;
18933;SDS011;9599;53.706;10.384;2022-07-29T05:51:18;5.37;;;2.73;;
18933;SDS011;9599;53.706;10.384;2022-07-29T05:53:46;5.47;;;3.03;;
18933;SDS011;9599;53.706;10.384;2022-07-29T05:56:13;5.97;;;3.00;;
18933;SDS011;9599;53.706;10.384;2022-07-29T05:58:41;6.70;;;3.00;;
18933;SDS011;9599;53.706;10.384;2022-07-29T06:01:09;5.50;;;2.70;;
18933;SDS011;9599;53.706;10.384;2022-07-29T06:03:37;5.33;;;2.80;;
18933;SDS011;9599;53.706;10.384;2022-07-29T06:06:07;6.50;;;3.10;;
18933;SDS011;9599;53.706;10.384;2022-07-29T06:08:36;5.43;;;2.90;;
18933;SDS011;9599;53.706;10.384;2022-07-29T06:11:05;4.20;;;2.93;;
18933;SDS011;9599;53.706;10.384;2022-07-29T06:13:33;6.33;;;2.80;;
18933;SDS011;9599;53.706;10.384;2022-07-29T06:16:01;5.03;;;2.60;;
18933;SDS011;9599;53.706;10.384;2022-07-29T06:18:30;8.37;;;3.00;;
18933;SDS011;9599;53.706;10.384;2022-07-29T06:20:58;8.13;;;2.87;;
18933;SDS011;9599;53.706;10.384;2022-07-29T06:23:26;4.57;;;2.40;;
18933;SDS011;9599;53.706;10.384;2022-07-29T06:25:55;5.07;;;2.90;;
18933;SDS011;9599;53.706;10.384;2022-07-29T06:28:23;4.63;;;3.07;;
18933;SDS011;9599;53.706;10.384;2022-07-29T06:30:52;4.80;;;2.60;;
18933;SDS011;9599;53.706;10.384;2022-07-29T06:33:20;4.60;;;2.30;;
18933;SDS011;9599;53.706;10.384;2022-07-29T06:35:48;6.07;;;3.07;;
18933;SDS011;9599;53.706;10.384;2022-07-29T06:38:20;5.10;;;2.47;;
18933;SDS011;9599;53.706;10.384;2022-07-29T06:41:00;6.03;;;2.97;;
18933;SDS011;9599;53.706;10.384;2022-07-29T06:43:32;4.57;;;2.60;;
18933;SDS011;9599;53.706;10.384;2022-07-29T06:46:16;5.67;;;2.57;;
18933;SDS011;9599;53.706;10.384;2022-07-29T06:48:46;4.70;;;2.60;;
18933;SDS011;9599;53.706;10.384;2022-07-29T06:51:15;5.10;;;2.60;;
18933;SDS011;9599;53.706;10.384;2022-07-29T06:53:48;4.03;;;2.80;;
18933;SDS011;9599;53.706;10.384;2022-07-29T06:56:30;4.97;;;2.40;;
18933;SDS011;9599;53.706;10.384;2022-07-29T06:59:05;6.73;;;2.77;;
18933;SDS011;9599;53.706;10.384;2022-07-29T07:01:34;4.00;;;2.67;;
18933;SDS011;9599;53.706;10.384;2022-07-29T07:04:03;8.13;;;3.17;;
18933;SDS011;9599;53.706;10.384;2022-07-29T07:06:31;4.93;;;2.67;;
18933;SDS011;9599;53.706;10.384;2022-07-29T07:08:59;7.07;;;2.93;;
18933;SDS011;9599;53.706;10.384;2022-07-29T07:11:27;4.90;;;2.60;;
18933;SDS011;9599;53.706;10.384;2022-07-29T07:13:56;7.83;;;2.57;;
18933;SDS011;9599;53.706;10.384;2022-07-29T07:16:29;4.30;;;2.27;;
18933;SDS011;9599;53.706;10.384;2022-07-29T07:18:57;5.20;;;2.47;;
18933;SDS011;9599;53.706;10.384;2022-07-29T07:21:25;4.60;;;2.50;;
18933;SDS011;9599;53.706;10.384;2022-07-29T07:23:56;4.97;;;2.40;;
18933;SDS011;9599;53.706;10.384;2022-07-29T07:26:24;5.63;;;2.53;;
18933;SDS011;9599;53.706;10.384;2022-07-29T07:28:52;8.00;;;2.70;;
18933;SDS011;9599;53.706;10.384;2022-07-29T07:31:21;4.20;;;2.40;;
18933;SDS011;9599;53.706;10.384;2022-07-29T07:33:49;5.43;;;2.63;;
18933;SDS011;9599;53.706;10.384;2022-07-29T07:36:18;4.70;;;2.33;;
18933;SDS011;9599;53.706;10.384;2022-07-29T07:38:46;5.57;;;2.33;;
18933;SDS011;9599;53.706;10.384;2022-07-29T07:41:14;6.60;;;2.83;;
18933;SDS011;9599;53.706;10.384;2022-07-29T07:43:42;3.23;;;2.50;;
18933;SDS011;9599;53.706;10.384;2022-07-29T07:46:10;4.43;;;2.53;;
18933;SDS011;9599;53.706;10.384;2022-07-29T07:48:39;8.10;;;3.23;;
18933;SDS011;9599;53.706;10.384;2022-07-29T07:51:07;3.63;;;2.50;;
18933;SDS011;9599;53.706;10.384;2022-07-29T07:53:35;5.60;;;2.50;;
18933;SDS011;9599;53.706;10.384;2022-07-29T07:56:03;6.20;;;2.37;;
18933;SDS011;9599;53.706;10.384;2022-07-29T07:58:37;4.50;;;2.60;;
18933;SDS011;9599;53.706;10.384;2022-07-29T08:01:05;4.07;;;2.43;;
18933;SDS011;9599;53.706;10.384;2022-07-29T08:03:33;2.80;;;2.50;;
18933;SDS011;9599;53.706;10.384;2022-07-29T08:06:02;4.77;;;2.60;;
18933;SDS011;9599;53.706;10.384;2022-07-29T08:08:31;4.63;;;2.53;;
18933;SDS011;9599;53.706;10.384;2022-07-29T08:10:59;4.07;;;2.30;;
18933;SDS011;9599;53.706;10.384;2022-07-29T08:13:34;3.57;;;2.50;;
18933;SDS011;9599;53.706;10.384;2022-07-29T08:16:03;5.63;;;2.50;;
18933;SDS011;9599;53.706;10.384;2022-07-29T08:18:39;6.97;;;2.70;;
18933;SDS011;9599;53.706;10.384;2022-07-29T08:21:09;4.33;;;2.67;;
18933;SDS011;9599;53.706;10.384;2022-07-29T08:23:40;6.87;;;2.57;;
18933;SDS011;9599;53.706;10.384;2022-07-29T08:26:24;4.37;;;2.73;;
18933;SDS011;9599;53.706;10.384;2022-07-29T08:28:52;6.27;;;2.97;;
18933;SDS011;9599;53.706;10.384;2022-07-29T08:31:20;5.57;;;2.70;;
18933;SDS011;9599;53.706;10.384;2022-07-29T08:33:48;6.03;;;2.83;;
18933;SDS011;9599;53.706;10.384;2022-07-29T08:36:17;4.57;;;2.30;;
18933;SDS011;9599;53.706;10.384;2022-07-29T08:38:47;4.40;;;2.50;;
18933;SDS011;9599;53.706;10.384;2022-07-29T08:41:15;6.87;;;2.70;;
18933;SDS011;9599;53.706;10.384;2022-07-29T08:43:45;4.17;;;2.30;;
18933;SDS011;9599;53.706;10.384;2022-07-29T08:46:13;7.63;;;2.70;;
18933;SDS011;9599;53.706;10.384;2022-07-29T08:48:41;4.03;;;2.40;;
18933;SDS011;9599;53.706;10.384;2022-07-29T08:51:12;5.23;;;2.40;;
18933;SDS011;9599;53.706;10.384;2022-07-29T08:53:44;6.27;;;2.30;;
18933;SDS011;9599;53.706;10.384;2022-07-29T08:56:14;5.10;;;2.40;;
18933;SDS011;9599;53.706;10.384;2022-07-29T08:58:44;5.30;;;2.30;;
18933;SDS011;9599;53.706;10.384;2022-07-29T09:01:17;6.37;;;2.57;;
18933;SDS011;9599;53.706;10.384;2022-07-29T09:04:09;8.57;;;2.67;;
18933;SDS011;9599;53.706;10.384;2022-07-29T09:06:40;3.97;;;2.27;;
18933;SDS011;9599;53.706;10.384;2022-07-29T09:09:12;5.67;;;2.50;;
18933;SDS011;9599;53.706;10.384;2022-07-29T09:11:41;4.37;;;2.10;;
18933;SDS011;9599;53.706;10.384;2022-07-29T09:14:11;5.40;;;2.30;;
18933;SDS011;9599;53.706;10.384;2022-07-29T09:16:50;4.13;;;2.47;;
18933;SDS011;9599;53.706;10.384;2022-07-29T09:19:27;5.13;;;2.10;;
18933;SDS011;9599;53.706;10.384;2022-07-29T09:21:57;3.77;;;2.20;;
18933;SDS011;9599;53.706;10.384;2022-07-29T09:24:43;3.20;;;2.27;;
18933;SDS011;9599;53.706;10.384;2022-07-29T09:27:20;7.57;;;2.20;;
18933;SDS011;9599;53.706;10.384;2022-07-29T09:29:58;4.93;;;2.20;;
18933;SDS011;9599;53.706;10.384;2022-07-29T09:32:29;6.97;;;2.23;;
18933;SDS011;9599;53.706;10.384;2022-07-29T09:37:53;5.13;;;2.30;;
18933;SDS011;9599;53.706;10.384;2022-07-29T09:40:23;5.13;;;2.30;;
18933;SDS011;9599;53.706;10.384;2022-07-29T09:42:52;6.27;;;2.20;;
18933;SDS011;9599;53.706;10.384;2022-07-29T09:45:26;4.67;;;2.20;;
18933;SDS011;9599;53.706;10.384;2022-07-29T09:47:56;4.47;;;2.17;;
18933;SDS011;9599;53.706;10.384;2022-07-29T09:50:35;4.03;;;2.00;;
18933;SDS011;9599;53.706;10.384;2022-07-29T09:53:04;6.23;;;1.93;;
18933;SDS011;9599;53.706;10.384;2022-07-29T09:55:40;4.90;;;1.80;;
18933;SDS011;9599;53.706;10.384;2022-07-29T09:58:14;3.80;;;1.80;;
18933;SDS011;9599;53.706;10.384;2022-07-29T10:00:43;5.07;;;1.90;;
18933;SDS011;9599;53.706;10.384;2022-07-29T10:03:12;3.10;;;2.10;;
18933;SDS011;9599;53.706;10.384;2022-07-29T10:05:42;7.23;;;2.27;;
18933;SDS011;9599;53.706;10.384;2022-07-29T10:08:11;4.10;;;1.92;;
18933;SDS011;9599;53.706;10.384;2022-07-29T10:10:41;4.03;;;1.55;;
18933;SDS011;9599;53.706;10.384;2022-07-29T10:13:10;3.93;;;1.97;;
18933;SDS011;9599;53.706;10.384;2022-07-29T10:15:42;5.03;;;1.80;;
18933;SDS011;9599;53.706;10.384;2022-07-29T10:18:13;4.75;;;1.95;;
18933;SDS011;9599;53.706;10.384;2022-07-29T10:20:43;9.10;;;2.00;;
18933;SDS011;9599;53.706;10.384;2022-07-29T10:23:12;5.07;;;1.80;;
18933;SDS011;9599;53.706;10.384;2022-07-29T10:25:41;5.57;;;1.77;;
18933;SDS011;9599;53.706;10.384;2022-07-29T10:28:12;5.30;;;1.90;;
18933;SDS011;9599;53.706;10.384;2022-07-29T10:30:42;4.53;;;1.70;;
18933;SDS011;9599;53.706;10.384;2022-07-29T10:33:17;4.13;;;1.83;;
18933;SDS011;9599;53.706;10.384;2022-07-29T10:36:04;3.60;;;1.65;;
18933;SDS011;9599;53.706;10.384;2022-07-29T10:38:54;7.85;;;1.90;;
18933;SDS011;9599;53.706;10.384;2022-07-29T10:41:50;4.90;;;1.98;;
18933;SDS011;9599;53.706;10.384;2022-07-29T10:44:28;2.83;;;1.80;;
18933;SDS011;9599;53.706;10.384;2022-07-29T10:46:57;5.30;;;1.83;;
18933;SDS011;9599;53.706;10.384;2022-07-29T10:49:27;6.78;;;1.90;;
18933;SDS011;9599;53.706;10.384;2022-07-29T10:51:58;4.93;;;2.22;;
18933;SDS011;9599;53.706;10.384;2022-07-29T10:54:38;5.88;;;1.92;;
18933;SDS011;9599;53.706;10.384;2022-07-29T10:57:30;3.15;;;1.90;;
18933;SDS011;9599;53.706;10.384;2022-07-29T11:00:27;4.50;;;1.83;;
18933;SDS011;9599;53.706;10.384;2022-07-29T11:02:56;3.75;;;1.65;;
18933;SDS011;9599;53.706;10.384;2022-07-29T11:05:30;4.80;;;1.85;;
18933;SDS011;9599;53.706;10.384;2022-07-29T11:08:25;5.40;;;2.03;;
18933;SDS011;9599;53.706;10.384;2022-07-29T11:14:18;2.22;;;1.60;;
18933;SDS011;9599;53.706;10.384;2022-07-29T11:17:06;5.82;;;1.90;;
18933;SDS011;9599;53.706;10.384;2022-07-29T11:19:39;3.90;;;1.90;;
18933;SDS011;9599;53.706;10.384;2022-07-29T11:22:31;4.88;;;1.92;;
18933;SDS011;9599;53.706;10.384;2022-07-29T11:25:12;6.93;;;1.83;;
18933;SDS011;9599;53.706;10.384;2022-07-29T11:27:42;5.93;;;1.90;;
18933;SDS011;9599;53.706;10.384;2022-07-29T11:30:14;5.55;;;2.00;;
18933;SDS011;9599;53.706;10.384;2022-07-29T11:32:43;2.13;;;1.60;;
18933;SDS011;9599;53.706;10.384;2022-07-29T11:35:14;5.20;;;1.90;;
18933;SDS011;9599;53.706;10.384;2022-07-29T11:43:51;3.58;;;1.70;;
18933;SDS011;9599;53.706;10.384;2022-07-29T11:49:13;3.88;;;2.03;;
18933;SDS011;9599;53.706;10.384;2022-07-29T11:51:50;4.28;;;2.33;;
18933;SDS011;9599;53.706;10.384;2022-07-29T11:54:21;4.85;;;2.20;;
18933;SDS011;9599;53.706;10.384;2022-07-29T11:56:53;3.67;;;1.75;;
18933;SDS011;9599;53.706;10.384;2022-07-29T11:59:22;5.80;;;2.22;;
18933;SDS011;9599;53.706;10.384;2022-07-29T12:02:12;6.53;;;2.30;;
18933;SDS011;9599;53.706;10.384;2022-07-29T12:05:01;5.40;;;2.33;;
18933;SDS011;9599;53.706;10.384;2022-07-29T12:07:37;5.22;;;2.35;;
18933;SDS011;9599;53.706;10.384;2022-07-29T12:10:12;4.60;;;2.42;;
18933;SDS011;9599;53.706;10.384;2022-07-29T12:12:54;7.20;;;2.80;;
18933;SDS011;9599;53.706;10.384;2022-07-29T12:15:22;6.03;;;2.45;;
18933;SDS011;9599;53.706;10.384;2022-07-29T12:18:13;6.10;;;2.53;;
18933;SDS011;9599;53.706;10.384;2022-07-29T12:20:44;8.90;;;2.60;;
18933;SDS011;9599;53.706;10.384;2022-07-29T12:23:12;3.90;;;2.17;;
18933;SDS011;9599;53.706;10.384;2022-07-29T12:25:42;3.53;;;2.47;;
18933;SDS011;9599;53.706;10.384;2022-07-29T12:28:15;9.05;;;2.67;;
18933;SDS011;9599;53.706;10.384;2022-07-29T12:30:52;3.93;;;2.17;;
18933;SDS011;9599;53.706;10.384;2022-07-29T12:33:23;4.75;;;2.50;;
18933;SDS011;9599;53.706;10.384;2022-07-29T12:35:54;4.33;;;2.27;;
18933;SDS011;9599;53.706;10.384;2022-07-29T12:38:32;5.55;;;2.60;;
18933;SDS011;9599;53.706;10.384;2022-07-29T12:41:02;4.10;;;2.43;;
18933;SDS011;9599;53.706;10.384;2022-07-29T12:43:30;5.67;;;2.17;;
18933;SDS011;9599;53.706;10.384;2022-07-29T12:46:10;6.93;;;2.50;;
18933;SDS011;9599;53.706;10.384;2022-07-29T12:48:42;8.60;;;2.80;;
18933;SDS011;9599;53.706;10.384;2022-07-29T12:51:11;9.83;;;2.77;;
18933;SDS011;9599;53.706;10.384;2022-07-29T12:53:40;5.37;;;2.40;;
18933;SDS011;9599;53.706;10.384;2022-07-29T12:56:14;5.53;;;2.50;;
18933;SDS011;9599;53.706;10.384;2022-07-29T12:59:10;4.17;;;2.40;;
18933;SDS011;9599;53.706;10.384;2022-07-29T13:01:40;5.37;;;2.40;;
18933;SDS011;9599;53.706;10.384;2022-07-29T13:04:09;5.70;;;2.60;;
18933;SDS011;9599;53.706;10.384;2022-07-29T13:06:38;7.90;;;2.33;;
18933;SDS011;9599;53.706;10.384;2022-07-29T13:09:08;7.28;;;2.47;;
18933;SDS011;9599;53.706;10.384;2022-07-29T13:11:38;4.00;;;2.63;;
18933;SDS011;9599;53.706;10.384;2022-07-29T13:14:14;5.40;;;2.58;;
18933;SDS011;9599;53.706;10.384;2022-07-29T13:17:01;5.90;;;2.55;;
18933;SDS011;9599;53.706;10.384;2022-07-29T13:19:36;6.03;;;2.35;;
18933;SDS011;9599;53.706;10.384;2022-07-29T13:22:06;3.33;;;2.20;;
18933;SDS011;9599;53.706;10.384;2022-07-29T13:24:44;4.77;;;2.30;;
18933;SDS011;9599;53.706;10.384;2022-07-29T13:27:14;3.67;;;2.15;;
18933;SDS011;9599;53.706;10.384;2022-07-29T13:29:43;8.63;;;2.37;;
18933;SDS011;9599;53.706;10.384;2022-07-29T13:32:12;6.03;;;2.43;;
18933;SDS011;9599;53.706;10.384;2022-07-29T13:34:42;6.17;;;2.10;;
18933;SDS011;9599;53.706;10.384;2022-07-29T13:37:10;4.63;;;2.30;;
18933;SDS011;9599;53.706;10.384;2022-07-29T13:39:38;5.50;;;2.30;;
18933;SDS011;9599;53.706;10.384;2022-07-29T13:42:06;5.33;;;1.97;;
18933;SDS011;9599;53.706;10.384;2022-07-29T13:44:36;6.53;;;2.23;;
18933;SDS011;9599;53.706;10.384;2022-07-29T13:47:04;6.73;;;2.20;;
18933;SDS011;9599;53.706;10.384;2022-07-29T13:49:34;11.03;;;2.53;;
18933;SDS011;9599;53.706;10.384;2022-07-29T13:52:03;6.27;;;2.37;;
18933;SDS011;9599;53.706;10.384;2022-07-29T13:54:33;4.73;;;2.30;;
18933;SDS011;9599;53.706;10.384;2022-07-29T13:57:08;5.03;;;2.40;;
18933;SDS011;9599;53.706;10.384;2022-07-29T13:59:36;3.93;;;2.30;;
18933;SDS011;9599;53.706;10.384;2022-07-29T14:02:05;10.13;;;2.50;;
18933;SDS011;9599;53.706;10.384;2022-07-29T14:04:33;10.87;;;2.10;;
18933;SDS011;9599;53.706;10.384;2022-07-29T14:07:06;5.20;;;2.30;;
18933;SDS011;9599;53.706;10.384;2022-07-29T14:09:35;4.90;;;2.30;;
18933;SDS011;9599;53.706;10.384;2022-07-29T14:12:07;7.00;;;2.40;;
18933;SDS011;9599;53.706;10.384;2022-07-29T14:14:35;8.37;;;2.20;;
18933;SDS011;9599;53.706;10.384;2022-07-29T14:17:04;5.97;;;2.20;;
18933;SDS011;9599;53.706;10.384;2022-07-29T14:19:33;6.93;;;2.23;;
18933;SDS011;9599;53.706;10.384;2022-07-29T14:22:04;6.70;;;2.23;;
18933;SDS011;9599;53.706;10.384;2022-07-29T14:24:36;9.17;;;2.40;;
18933;SDS011;9599;53.706;10.384;2022-07-29T14:27:04;6.47;;;2.40;;
18933;SDS011;9599;53.706;10.384;2022-07-29T14:29:32;7.80;;;2.60;;
18933;SDS011;9599;53.706;10.384;2022-07-29T14:32:04;10.77;;;2.40;;
18933;SDS011;9599;53.706;10.384;2022-07-29T14:34:32;6.70;;;2.40;;
18933;SDS011;9599;53.706;10.384;2022-07-29T14:37:00;9.47;;;2.73;;
18933;SDS011;9599;53.706;10.384;2022-07-29T14:39:30;6.73;;;2.50;;
18933;SDS011;9599;53.706;10.384;2022-07-29T14:41:58;14.07;;;2.97;;
18933;SDS011;9599;53.706;10.384;2022-07-29T14:44:26;6.97;;;2.27;;
18933;SDS011;9599;53.706;10.384;2022-07-29T14:46:57;6.45;;;2.42;;
18933;SDS011;9599;53.706;10.384;2022-07-29T14:49:33;7.77;;;2.60;;
18933;SDS011;9599;53.706;10.384;2022-07-29T14:52:01;6.37;;;2.57;;
18933;SDS011;9599;53.706;10.384;2022-07-29T14:54:30;8.43;;;2.60;;
18933;SDS011;9599;53.706;10.384;2022-07-29T14:56:58;5.63;;;2.47;;
18933;SDS011;9599;53.706;10.384;2022-07-29T14:59:26;8.37;;;2.50;;
18933;SDS011;9599;53.706;10.384;2022-07-29T15:01:55;12.50;;;2.70;;
18933;SDS011;9599;53.706;10.384;2022-07-29T15:04:24;9.27;;;2.60;;
18933;SDS011;9599;53.706;10.384;2022-07-29T15:06:52;4.07;;;2.30;;
18933;SDS011;9599;53.706;10.384;2022-07-29T15:09:21;4.50;;;2.43;;
18933;SDS011;9599;53.706;10.384;2022-07-29T15:11:50;4.83;;;2.37;;
18933;SDS011;9599;53.706;10.384;2022-07-29T15:14:18;7.20;;;2.63;;
18933;SDS011;9599;53.706;10.384;2022-07-29T15:16:46;5.27;;;2.50;;
18933;SDS011;9599;53.706;10.384;2022-07-29T15:19:17;7.93;;;2.37;;
18933;SDS011;9599;53.706;10.384;2022-07-29T15:21:46;10.87;;;2.87;;
18933;SDS011;9599;53.706;10.384;2022-07-29T15:24:14;7.77;;;2.30;;
18933;SDS011;9599;53.706;10.384;2022-07-29T15:26:43;6.57;;;2.60;;
18933;SDS011;9599;53.706;10.384;2022-07-29T15:29:12;8.70;;;2.50;;